»·PEaware :: SAM020 KNYL-KLSV

SAM020 :: KNYL-KLSV

FLIGHT INFORMATION

Flight Status: Arrived
Operator:
SAM Colombia
More flights by this operator :: More flights under this callsign
Pilot: Matthew M. (8235)
Aircraft: BOEING 757-200
(B752)
More flights by this aircraft type
Origin: KNYL Yuma MCAS/Yuma Intl
United States
Destination: KLSV Nellis AFB
United States
More flights between these airports :: More routes between these airports
Route: PICA4 BLH BLD
File this flight plan on PilotEdge
Remarks:
Altitude:
(Current/Filed)
36,000ft
Speed:
(Current/Filed)
405kts
Departed: 17-Mar-20 03:05 PM
Arrived: 17-Mar-20 03:49 PM
Distance/Time
Traveled:
216nm/0:44
Distance/Time
To Go:
Arrived

Flight Plot

Page will automatically refresh every two minutes.

Flight plan parsing failed; only flown route is shown


Map Options




Map Legend


Flown Route
Filed Route
Departure Airport
Arrival Airport
Navaid (VOR, NDB)
Fix

Horizontal Profiles

Position Reports

Time Latitude Longitude Heading Altitude Ground
Speed
17-Mar-20 14:46 32.660257 -114.594212 49 211ft 0kts
17-Mar-20 14:47 32.660257 -114.594212 49 211ft 0kts
17-Mar-20 14:48 32.660257 -114.594212 49 211ft 0kts
17-Mar-20 14:49 32.660257 -114.594212 49 211ft 0kts
17-Mar-20 14:50 32.660257 -114.594212 49 211ft 0kts
17-Mar-20 14:51 32.660257 -114.594212 49 211ft 0kts
17-Mar-20 14:52 32.660257 -114.594212 49 211ft 0kts
17-Mar-20 14:53 32.660257 -114.594212 49 211ft 0kts
17-Mar-20 14:54 32.660257 -114.594212 49 211ft 0kts
17-Mar-20 14:55 32.660257 -114.594212 49 211ft 0kts
17-Mar-20 14:56 32.660257 -114.594212 49 211ft 0kts
17-Mar-20 14:57 32.660257 -114.594212 49 211ft 0kts
17-Mar-20 14:58 32.660257 -114.594212 49 211ft 0kts
17-Mar-20 14:59 32.660257 -114.594212 49 211ft 0kts
17-Mar-20 15:00 32.660258 -114.594212 49 211ft 0kts
17-Mar-20 15:01 32.660657 -114.594077 4 211ft 9kts
17-Mar-20 15:02 32.662584 -114.591790 89 217ft 13kts
17-Mar-20 15:03 32.666405 -114.591004 1 220ft 14kts
17-Mar-20 15:04 32.657288 -114.602607 225 712ft 134kts
17-Mar-20 15:05 32.656906 -114.639898 336 2000ft 193kts
17-Mar-20 15:06 32.716434 -114.642479 354 3665ft 257kts
17-Mar-20 15:07 32.778595 -114.648701 350 6681ft 269kts
17-Mar-20 15:08 32.834572 -114.654276 351 9041ft 285kts
17-Mar-20 15:09 32.893732 -114.659648 352 10512ft 331kts
17-Mar-20 15:10 32.971116 -114.666338 352 12538ft 365kts
17-Mar-20 15:11 33.048957 -114.669599 356 14670ft 383kts
17-Mar-20 15:12 33.119266 -114.672757 353 16299ft 396kts
17-Mar-20 15:13 33.188768 -114.678303 352 17862ft 406kts
17-Mar-20 15:14 33.281863 -114.688977 348 20145ft 408kts
17-Mar-20 15:15 33.362931 -114.698728 348 22748ft 392kts
17-Mar-20 15:16 33.426004 -114.713543 341 24029ft 395kts
17-Mar-20 15:17 33.493208 -114.730716 341 25282ft 404kts
17-Mar-20 15:18 33.568065 -114.749911 341 26653ft 411kts
17-Mar-20 15:19 33.671633 -114.760193 351 28345ft 431kts
17-Mar-20 15:20 33.778306 -114.764589 351 29927ft 442kts
17-Mar-20 15:21 33.885494 -114.769042 351 31496ft 452kts
17-Mar-20 15:22 34.000606 -114.773992 350 33150ft 462kts
17-Mar-20 15:23 34.116034 -114.781172 350 34731ft 475kts
17-Mar-20 15:24 34.232547 -114.786311 351 35946ft 487kts
17-Mar-20 15:25 34.349623 -114.791244 351 35937ft 484kts
17-Mar-20 15:26 34.469774 -114.794986 352 33805ft 486kts
17-Mar-20 15:27 34.589646 -114.799708 351 32084ft 461kts
17-Mar-20 15:28 34.704108 -114.805905 351 30353ft 444kts
17-Mar-20 15:29 34.814863 -114.811008 351 28545ft 432kts
17-Mar-20 15:30 34.926253 -114.815796 352 26669ft 422kts
17-Mar-20 15:31 35.038474 -114.820221 353 24678ft 417kts
17-Mar-20 15:32 35.126446 -114.824350 354 23632ft 422kts
17-Mar-20 15:33 35.225747 -114.828641 355 21038ft 420kts
17-Mar-20 15:34 35.337059 -114.833447 355 19226ft 401kts
17-Mar-20 15:35 35.437645 -114.837794 355 18924ft 398kts
17-Mar-20 15:36 35.549825 -114.842654 355 17735ft 388kts
17-Mar-20 15:37 35.645181 -114.846680 357 16038ft 378kts
17-Mar-20 15:38 35.745952 -114.857072 351 14194ft 367kts
17-Mar-20 15:39 35.839965 -114.871324 351 14012ft 358kts
17-Mar-20 15:40 35.928421 -114.884708 351 13948ft 338kts
17-Mar-20 15:41 36.018329 -114.898400 351 12502ft 329kts
17-Mar-20 15:42 36.103368 -114.911571 351 10865ft 287kts
17-Mar-20 15:43 36.179773 -114.923254 351 8532ft 244kts
17-Mar-20 15:44 36.242550 -114.933065 351 5989ft 198kts
17-Mar-20 15:45 36.286450 -114.952837 291 4311ft 156kts
17-Mar-20 15:46 36.276824 -114.992501 220 2782ft 115kts
17-Mar-20 15:47 36.252992 -115.018382 217 2022ft 116kts
17-Mar-20 15:48 36.236708 -115.035970 221 1859ft 38kts
17-Mar-20 15:49 36.235379 -115.040092 320 1859ft 10kts
17-Mar-20 15:50 36.236506 -115.040767 40 1859ft 0kts
17-Mar-20 15:51 36.236506 -115.040767 40 1859ft 0kts

Navigation Log

Ident Type
Flight plan parsing failed, navigation log unavailable